Terminal Aerodrome Forecast
Issued by NWS

Home | Current Version | Previous Version | Text Only | Print | Product List | Glossary On
Versions: 1 2 3 4 5 6 7 8 9 10 11 12 13 14 15 16
000
FTUS46 KHNX 180521
TAFFAT
TAF
KFAT 180521Z 1806/1906 04004KT P6SM SCT060 BKN080
      TEMPO 1807/1810 4SM -SHRA BR SCT025 OVC060
     FM181200 13006KT 4SM BR BKN030 OVC050
     FM181800 12003KT 4SM HZ BR SCT050 BKN250
     FM190000 VRB03KT 5SM HZ BR BKN250=

USA.gov is the U.S. government's official web portal to all federal, state and local government web resources and services.